createdAt,value
2023-05-22T00:00:13.135Z,15.33
2023-05-22T00:02:42.813Z,15.36
2023-05-22T00:05:11.762Z,15.32
2023-05-22T00:07:39.202Z,15.34
2023-05-22T00:10:06.613Z,15.31
2023-05-22T00:12:32.978Z,15.35
2023-05-22T00:14:59.347Z,15.39
2023-05-22T00:17:26.390Z,15.29
2023-05-22T00:19:54.090Z,15.34
2023-05-22T00:22:20.951Z,15.36
2023-05-22T00:24:47.627Z,15.44
2023-05-22T00:27:14.107Z,15.44
2023-05-22T00:29:40.498Z,15.42
2023-05-22T00:32:07.232Z,15.35
2023-05-22T00:34:33.642Z,15.26
2023-05-22T00:37:00.147Z,15.26
2023-05-22T00:39:26.495Z,15.17
2023-05-22T00:41:52.833Z,15.20
2023-05-22T00:44:19.201Z,15.21
2023-05-22T00:46:45.786Z,15.21
2023-05-22T00:49:12.153Z,15.19
2023-05-22T00:51:38.502Z,15.08
2023-05-22T00:54:06.037Z,15.07
2023-05-22T00:56:33.194Z,15.08
2023-05-22T00:58:59.714Z,15.04
2023-05-22T01:01:26.709Z,15.03
2023-05-22T01:03:53.894Z,14.95
2023-05-22T01:06:23.360Z,14.86
2023-05-22T01:08:49.804Z,14.85
2023-05-22T01:11:35.062Z,14.82
2023-05-22T01:14:14.816Z,14.74
2023-05-22T01:16:52.504Z,14.58
2023-05-22T01:19:35.558Z,14.56
2023-05-22T01:22:31.135Z,14.52
2023-05-22T01:25:16.940Z,14.48
2023-05-22T01:27:55.210Z,14.48
2023-05-22T01:30:42.698Z,14.41
2023-05-22T01:33:12.082Z,14.40
2023-05-22T01:35:41.383Z,14.37
2023-05-22T01:38:08.749Z,14.34
2023-05-22T01:40:36.358Z,14.25
2023-05-22T01:43:02.862Z,14.25
2023-05-22T01:45:31.551Z,14.26
2023-05-22T01:47:58.469Z,14.27
2023-05-22T01:50:26.419Z,14.19
2023-05-22T01:53:12.298Z,14.10
2023-05-22T01:55:45.198Z,14.03
2023-05-22T01:58:36.038Z,14.04
2023-05-22T02:01:03.547Z,14.04
2023-05-22T02:03:33.354Z,14.04
2023-05-22T02:06:05.860Z,14.01
2023-05-22T02:08:33.434Z,13.94
2023-05-22T02:11:02.051Z,13.91
2023-05-22T02:13:28.792Z,13.95
2023-05-22T02:15:56.771Z,13.98
2023-05-22T02:18:30.822Z,13.79
2023-05-22T02:20:57.916Z,13.80
2023-05-22T02:23:24.849Z,13.75
2023-05-22T02:25:51.371Z,13.75
2023-05-22T02:28:17.753Z,13.79
2023-05-22T02:30:44.191Z,13.77
2023-05-22T02:33:11.392Z,13.77
2023-05-22T02:35:37.780Z,13.79
2023-05-22T02:38:04.556Z,13.82
2023-05-22T02:40:30.916Z,13.81
2023-05-22T02:42:57.230Z,13.79
2023-05-22T02:45:23.538Z,13.78
2023-05-22T02:47:49.874Z,13.68
2023-05-22T02:50:16.222Z,13.74
2023-05-22T02:52:42.549Z,13.76
2023-05-22T02:55:09.328Z,13.79
2023-05-22T02:57:35.804Z,13.78
2023-05-22T03:00:03.402Z,13.80
2023-05-22T03:02:32.190Z,13.81
2023-05-22T03:05:01.454Z,13.87
2023-05-22T03:07:29.888Z,13.87
2023-05-22T03:09:56.318Z,13.87
2023-05-22T03:12:22.650Z,13.87
2023-05-22T03:14:49.128Z,13.80
2023-05-22T03:17:15.462Z,13.75
2023-05-22T03:19:41.839Z,13.83
2023-05-22T03:22:08.169Z,13.88
2023-05-22T03:24:34.524Z,13.86
2023-05-22T03:27:00.865Z,13.83
2023-05-22T03:29:27.275Z,13.88
2023-05-22T03:31:54.373Z,13.87
2023-05-22T03:34:22.476Z,13.93
2023-05-22T03:36:48.822Z,13.93
2023-05-22T03:39:15.239Z,13.99
2023-05-22T03:41:41.803Z,14.03
2023-05-22T03:44:08.151Z,14.04
2023-05-22T03:46:34.610Z,14.03
2023-05-22T03:49:00.909Z,13.96
2023-05-22T03:51:27.414Z,14.04
2023-05-22T03:53:53.749Z,14.09
2023-05-22T03:56:21.003Z,14.14
2023-05-22T03:58:47.498Z,14.11
2023-05-22T04:01:13.827Z,14.09
2023-05-22T04:03:40.497Z,14.18
2023-05-22T04:06:07.378Z,14.23
2023-05-22T04:08:34.067Z,14.25
2023-05-22T04:11:00.535Z,14.21
2023-05-22T04:13:27.110Z,14.22
2023-05-22T04:15:53.606Z,14.28
2023-05-22T04:18:20.130Z,14.31
2023-05-22T04:20:46.468Z,14.34
2023-05-22T04:23:13.126Z,14.43
2023-05-22T04:25:39.508Z,14.49
2023-05-22T04:28:06.154Z,14.56
2023-05-22T04:30:37.371Z,14.49
2023-05-22T04:33:05.413Z,14.50
2023-05-22T04:35:32.012Z,14.60
2023-05-22T04:38:02.018Z,14.64
2023-05-22T04:40:30.222Z,14.58
2023-05-22T04:42:59.651Z,14.57
2023-05-22T04:45:26.850Z,14.65
2023-05-22T04:47:53.280Z,14.66
2023-05-22T04:50:20.477Z,14.75
2023-05-22T04:52:47.574Z,14.79
2023-05-22T04:55:14.648Z,14.87
2023-05-22T04:57:41.162Z,15.06
2023-05-22T05:00:08.136Z,15.33
2023-05-22T05:02:34.462Z,15.56
2023-05-22T05:05:00.966Z,15.89
2023-05-22T05:07:27.815Z,16.10
2023-05-22T05:09:54.194Z,16.33
2023-05-22T05:12:20.524Z,16.40
2023-05-22T05:14:46.852Z,16.71
2023-05-22T05:17:13.765Z,16.78
2023-05-22T05:19:40.287Z,16.82
2023-05-22T05:22:06.747Z,16.91
2023-05-22T05:24:33.439Z,17.05
2023-05-22T05:26:59.784Z,17.02
2023-05-22T05:29:26.096Z,17.15
2023-05-22T05:31:52.456Z,17.17
2023-05-22T05:34:18.865Z,17.02
2023-05-22T05:36:45.449Z,16.93
2023-05-22T05:39:12.415Z,17.02
2023-05-22T05:41:38.842Z,17.08
2023-05-22T05:44:05.351Z,17.09
2023-05-22T05:46:31.820Z,17.15
2023-05-22T05:48:58.521Z,17.20
2023-05-22T05:51:25.044Z,17.30
2023-05-22T05:53:51.397Z,17.43
2023-05-22T05:56:17.876Z,17.48
2023-05-22T05:58:44.228Z,17.46
2023-05-22T06:01:11.686Z,17.63
2023-05-22T06:03:38.791Z,17.85
2023-05-22T06:06:05.973Z,17.99
2023-05-22T06:08:32.381Z,18.22
2023-05-22T06:10:58.807Z,18.30
2023-05-22T06:13:25.138Z,18.36
2023-05-22T06:15:51.873Z,18.28
2023-05-22T06:18:18.427Z,18.30
2023-05-22T06:20:44.819Z,18.33
2023-05-22T06:23:11.172Z,18.35
2023-05-22T06:25:39.712Z,18.50
2023-05-22T06:28:06.357Z,18.50
2023-05-22T06:33:05.110Z,18.76
2023-05-22T06:35:31.523Z,18.78
2023-05-22T06:37:58.881Z,18.92
2023-05-22T06:40:25.518Z,19.02
2023-05-22T06:42:52.730Z,19.28
2023-05-22T06:45:19.789Z,19.53
2023-05-22T06:47:46.306Z,19.80
2023-05-22T06:50:12.684Z,20.00
2023-05-22T06:52:39.161Z,20.04
2023-05-22T06:55:07.061Z,20.04
2023-05-22T06:57:33.703Z,20.17
2023-05-22T07:00:01.564Z,20.41
2023-05-22T07:02:28.013Z,20.54
2023-05-22T07:04:54.462Z,20.72
2023-05-22T07:07:21.111Z,20.94
2023-05-22T07:09:47.673Z,20.99
2023-05-22T07:12:14.030Z,21.12
2023-05-22T07:14:40.514Z,21.06
2023-05-22T07:17:06.857Z,21.01
2023-05-22T07:19:33.971Z,21.07
2023-05-22T07:22:00.463Z,21.22
2023-05-22T07:24:26.798Z,21.31
2023-05-22T07:26:53.206Z,21.32
2023-05-22T07:29:20.775Z,21.39
2023-05-22T07:31:48.829Z,21.48
2023-05-22T07:34:16.292Z,21.61
2023-05-22T07:36:42.767Z,21.29
2023-05-22T07:39:09.630Z,21.37
2023-05-22T07:41:36.138Z,21.48
2023-05-22T07:44:02.520Z,21.64
2023-05-22T07:46:29.048Z,21.82
2023-05-22T07:48:55.501Z,22.02
2023-05-22T07:51:21.893Z,22.26
2023-05-22T07:53:48.260Z,22.22
2023-05-22T07:56:14.738Z,22.27
2023-05-22T07:58:41.080Z,22.33
2023-05-22T08:01:09.398Z,22.35
2023-05-22T08:03:36.409Z,22.51
2023-05-22T08:06:03.467Z,22.61
2023-05-22T08:08:31.712Z,22.93
2023-05-22T08:11:04.014Z,23.12
2023-05-22T08:16:00.518Z,23.37
2023-05-22T08:18:28.904Z,22.97
2023-05-22T08:20:55.840Z,22.91
2023-05-22T08:23:22.143Z,23.04
2023-05-22T08:25:49.957Z,23.20
2023-05-22T08:28:16.421Z,23.31
2023-05-22T08:30:42.905Z,23.50
2023-05-22T08:33:09.287Z,23.50
2023-05-22T08:35:35.849Z,23.30
2023-05-22T08:38:02.277Z,23.36
2023-05-22T08:40:37.666Z,23.56
2023-05-22T08:43:07.461Z,23.61
2023-05-22T08:45:37.502Z,23.74
2023-05-22T08:48:05.976Z,23.91
2023-05-22T08:50:34.589Z,24.06
2023-05-22T08:53:04.260Z,24.14
2023-05-22T08:55:30.963Z,23.79
2023-05-22T08:57:57.572Z,23.63
2023-05-22T09:00:23.991Z,23.61
2023-05-22T09:02:50.823Z,23.32
2023-05-22T09:05:17.574Z,23.29
2023-05-22T09:07:44.981Z,23.23
2023-05-22T09:10:11.571Z,23.32
2023-05-22T09:12:37.963Z,23.33
2023-05-22T09:15:11.124Z,23.39
2023-05-22T09:17:40.942Z,23.52
2023-05-22T09:20:10.165Z,23.57
2023-05-22T09:22:40.745Z,23.45
2023-05-22T09:25:07.556Z,23.75
2023-05-22T09:27:34.237Z,23.85
2023-05-22T09:30:01.020Z,23.88
2023-05-22T09:32:31.115Z,23.97
2023-05-22T09:35:04.898Z,24.09
2023-05-22T09:37:35.651Z,24.14
2023-05-22T09:40:06.592Z,24.14
2023-05-22T09:42:34.740Z,24.25
2023-05-22T09:45:08.241Z,24.51
2023-05-22T09:47:35.722Z,24.50
2023-05-22T09:50:06.364Z,24.44
2023-05-22T09:52:37.354Z,24.62
2023-05-22T09:55:08.505Z,24.84
2023-05-22T09:57:44.021Z,24.76
2023-05-22T10:00:18.441Z,24.83
2023-05-22T10:02:53.303Z,24.50
2023-05-22T10:05:21.977Z,24.42
2023-05-22T10:07:55.178Z,24.56
2023-05-22T10:10:24.121Z,24.72
2023-05-22T10:12:56.229Z,24.61
2023-05-22T10:15:23.661Z,24.78
2023-05-22T10:17:50.558Z,25.02
2023-05-22T10:20:17.348Z,25.06
2023-05-22T10:22:44.395Z,25.06
2023-05-22T10:25:11.521Z,24.95
2023-05-22T10:27:40.068Z,25.06
2023-05-22T10:30:21.889Z,24.82
2023-05-22T10:32:56.255Z,25.15
2023-05-22T10:35:47.592Z,25.12
2023-05-22T10:38:38.417Z,25.08
2023-05-22T10:41:05.095Z,25.23
2023-05-22T10:43:33.996Z,25.53
2023-05-22T10:46:04.607Z,25.58
2023-05-22T10:48:40.886Z,25.18
2023-05-22T10:51:08.563Z,25.33
2023-05-22T10:53:36.029Z,25.49
2023-05-22T10:56:16.400Z,25.43
2023-05-22T10:58:55.397Z,25.05
2023-05-22T11:01:26.188Z,24.89
2023-05-22T11:03:54.032Z,25.01
2023-05-22T11:06:42.167Z,25.06
2023-05-22T11:09:18.825Z,25.19
2023-05-22T11:11:46.725Z,25.16
2023-05-22T11:14:16.731Z,25.38
2023-05-22T11:16:43.228Z,25.43
2023-05-22T11:19:22.703Z,25.49
2023-05-22T11:21:50.126Z,25.71
2023-05-22T11:24:19.970Z,25.44
2023-05-22T11:27:02.076Z,25.70
2023-05-22T11:29:29.296Z,25.82
2023-05-22T11:31:57.784Z,25.84
2023-05-22T11:34:25.068Z,25.91
2023-05-22T11:37:01.378Z,26.21
2023-05-22T11:39:27.842Z,26.07
2023-05-22T11:41:54.614Z,26.10
2023-05-22T11:44:21.228Z,25.98
2023-05-22T11:46:47.772Z,25.65
2023-05-22T11:49:14.331Z,25.72
2023-05-22T11:51:40.745Z,25.85
2023-05-22T11:54:07.746Z,25.80
2023-05-22T11:56:34.115Z,25.95
2023-05-22T11:59:01.500Z,25.54
2023-05-22T12:01:27.977Z,25.60
2023-05-22T12:03:54.906Z,25.66
2023-05-22T12:06:21.659Z,25.74
2023-05-22T12:08:48.074Z,25.76
2023-05-22T12:11:14.431Z,25.91
2023-05-22T12:13:41.194Z,25.81
2023-05-22T12:16:21.855Z,25.89
2023-05-22T12:18:52.700Z,26.26
2023-05-22T12:21:20.259Z,26.26
2023-05-22T12:23:51.101Z,26.23
2023-05-22T12:26:17.915Z,26.34
2023-05-22T12:28:44.298Z,26.56
2023-05-22T12:31:11.111Z,26.94
2023-05-22T12:33:39.496Z,26.93
2023-05-22T12:36:09.361Z,26.61
2023-05-22T12:38:37.709Z,26.69
2023-05-22T12:41:04.181Z,26.58
2023-05-22T12:43:30.506Z,26.35
2023-05-22T12:45:57.193Z,26.44
2023-05-22T12:48:23.616Z,26.40
2023-05-22T12:50:49.986Z,26.64
2023-05-22T12:53:16.347Z,26.66
2023-05-22T12:55:43.203Z,26.62
2023-05-22T12:58:09.589Z,26.37
2023-05-22T13:00:36.129Z,26.26
2023-05-22T13:03:03.901Z,26.28
2023-05-22T13:05:30.454Z,26.32
2023-05-22T13:07:56.959Z,26.14
2023-05-22T13:10:23.458Z,26.47
2023-05-22T13:12:51.332Z,26.33
2023-05-22T13:15:18.503Z,26.43
2023-05-22T13:17:45.606Z,26.54
2023-05-22T13:20:12.265Z,26.61
2023-05-22T13:22:39.154Z,26.58
2023-05-22T13:25:06.165Z,26.81
2023-05-22T13:27:33.846Z,26.75
2023-05-22T13:30:00.489Z,26.58
2023-05-22T13:32:26.946Z,26.59
2023-05-22T13:34:53.354Z,26.76
2023-05-22T13:37:19.860Z,26.58
2023-05-22T13:39:46.518Z,26.49
2023-05-22T13:42:12.877Z,26.69
2023-05-22T13:44:39.248Z,26.78
2023-05-22T13:47:05.850Z,26.85
2023-05-22T13:49:32.233Z,26.66
2023-05-22T13:51:58.781Z,26.79
2023-05-22T13:54:25.221Z,26.79
2023-05-22T13:56:51.555Z,26.73
2023-05-22T13:59:17.964Z,26.51
2023-05-22T14:01:44.418Z,26.41
2023-05-22T14:04:10.942Z,26.46
2023-05-22T14:06:37.420Z,26.30
2023-05-22T14:09:06.964Z,26.06
2023-05-22T14:11:33.452Z,26.09
2023-05-22T14:13:59.769Z,25.84
2023-05-22T14:16:26.160Z,25.75
2023-05-22T14:18:52.640Z,25.88
2023-05-22T14:21:19.700Z,25.93
2023-05-22T14:23:46.187Z,25.83
2023-05-22T14:26:14.280Z,25.83
2023-05-22T14:28:41.417Z,25.72
2023-05-22T14:31:07.810Z,25.72
2023-05-22T14:33:34.280Z,25.69
2023-05-22T14:36:00.663Z,25.86
2023-05-22T14:38:33.401Z,25.82
2023-05-22T14:41:00.707Z,25.99
2023-05-22T14:43:28.605Z,25.96
2023-05-22T14:45:56.523Z,25.89
2023-05-22T14:48:26.067Z,26.14
2023-05-22T14:50:56.046Z,25.85
2023-05-22T14:53:22.771Z,25.76
2023-05-22T14:55:49.238Z,25.69
2023-05-22T14:58:15.610Z,25.73
2023-05-22T15:00:46.998Z,25.55
2023-05-22T15:03:13.379Z,25.30
2023-05-22T15:05:40.068Z,25.22
2023-05-22T15:08:06.645Z,25.34
2023-05-22T15:10:33.015Z,25.22
2023-05-22T15:12:59.375Z,25.04
2023-05-22T15:15:25.865Z,24.86
2023-05-22T15:17:52.266Z,24.73
2023-05-22T15:20:18.681Z,24.68
2023-05-22T15:22:45.387Z,24.59
2023-05-22T15:25:14.705Z,24.67
2023-05-22T15:27:41.139Z,24.73
2023-05-22T15:30:09.544Z,24.57
2023-05-22T15:32:37.052Z,24.28
2023-05-22T15:35:03.805Z,24.19
2023-05-22T15:37:36.598Z,24.15
2023-05-22T15:40:04.571Z,24.04
2023-05-22T15:42:31.044Z,24.01
2023-05-22T15:44:59.326Z,23.96
2023-05-22T15:47:26.042Z,23.93
2023-05-22T15:49:52.633Z,23.97
2023-05-22T15:52:19.280Z,23.83
2023-05-22T15:54:45.616Z,23.77
2023-05-22T15:57:12.021Z,23.75
2023-05-22T15:59:38.323Z,23.73
2023-05-22T16:02:04.905Z,23.73
2023-05-22T16:04:31.345Z,23.67
2023-05-22T16:06:57.727Z,23.66
2023-05-22T16:09:24.049Z,23.57
2023-05-22T16:11:50.448Z,23.56
2023-05-22T16:14:16.840Z,23.58
2023-05-22T16:16:43.691Z,23.73
2023-05-22T16:19:11.350Z,23.52
2023-05-22T16:21:38.485Z,23.39
2023-05-22T16:24:06.376Z,23.05
2023-05-22T16:26:32.753Z,22.79
2023-05-22T16:28:59.079Z,22.64
2023-05-22T16:31:35.228Z,22.39
2023-05-22T16:34:05.198Z,21.74
2023-05-22T16:36:32.391Z,21.31
2023-05-22T16:38:58.729Z,21.03
2023-05-22T16:41:26.354Z,20.75
2023-05-22T16:43:52.937Z,20.38
2023-05-22T16:46:19.313Z,20.32
2023-05-22T16:48:45.844Z,20.27
2023-05-22T16:51:12.195Z,20.35
2023-05-22T16:53:41.589Z,20.11
2023-05-22T16:56:08.173Z,19.88
2023-05-22T16:58:34.544Z,19.89
2023-05-22T17:01:02.927Z,19.75
2023-05-22T17:03:29.424Z,19.64
2023-05-22T17:05:55.966Z,19.56
2023-05-22T17:08:22.432Z,19.38
2023-05-22T17:10:48.825Z,19.35
2023-05-22T17:13:20.803Z,19.23
2023-05-22T17:15:48.671Z,19.15
2023-05-22T17:18:19.822Z,19.14
2023-05-22T17:20:50.796Z,18.86
2023-05-22T17:23:17.802Z,18.86
2023-05-22T17:25:46.346Z,18.77
2023-05-22T17:28:16.611Z,18.70
2023-05-22T17:30:45.047Z,18.51
2023-05-22T17:33:12.088Z,18.43
2023-05-22T17:35:38.594Z,18.53
2023-05-22T17:38:07.006Z,18.32
2023-05-22T17:40:44.247Z,18.25
2023-05-22T17:43:12.297Z,18.13
2023-05-22T17:45:38.784Z,18.17
2023-05-22T17:48:07.309Z,17.93
2023-05-22T17:50:33.711Z,17.96
2023-05-22T17:53:00.161Z,17.99
2023-05-22T17:55:26.494Z,18.10
2023-05-22T17:57:53.062Z,18.05
2023-05-22T18:00:19.603Z,18.05
2023-05-22T18:02:47.501Z,18.05
2023-05-22T18:05:13.928Z,18.07
2023-05-22T18:07:40.462Z,18.05
2023-05-22T18:10:07.243Z,18.05
2023-05-22T18:12:34.927Z,17.94
2023-05-22T18:15:02.466Z,17.83
2023-05-22T18:17:28.861Z,17.57
2023-05-22T18:19:55.434Z,17.59
2023-05-22T18:22:23.826Z,17.55
2023-05-22T18:24:50.603Z,17.46
2023-05-22T18:27:16.926Z,17.39
2023-05-22T18:29:43.300Z,17.29
2023-05-22T18:32:10.839Z,17.21
2023-05-22T18:34:37.505Z,17.21
2023-05-22T18:37:04.433Z,17.31
2023-05-22T18:39:30.832Z,17.27
2023-05-22T18:41:58.328Z,17.31
2023-05-22T18:44:24.687Z,17.20
2023-05-22T18:46:51.114Z,17.08
2023-05-22T18:49:17.625Z,16.91
2023-05-22T18:51:43.973Z,16.91
2023-05-22T18:54:10.342Z,16.66
2023-05-22T18:56:37.018Z,16.67
2023-05-22T18:59:03.529Z,16.66
2023-05-22T19:01:29.985Z,16.63
2023-05-22T19:03:56.514Z,16.60
2023-05-22T19:06:23.018Z,16.68
2023-05-22T19:08:49.407Z,16.66
2023-05-22T19:11:15.906Z,16.68
2023-05-22T19:13:42.238Z,16.75
2023-05-22T19:16:08.718Z,16.82
2023-05-22T19:18:35.092Z,17.09
2023-05-22T19:21:01.508Z,17.13
2023-05-22T19:23:29.403Z,17.19
2023-05-22T19:25:58.126Z,17.26
2023-05-22T19:28:24.736Z,17.37
2023-05-22T19:30:52.002Z,17.28
2023-05-22T19:33:18.783Z,17.21
2023-05-22T19:35:45.177Z,17.25
2023-05-22T19:38:11.493Z,16.76
2023-05-22T19:40:37.911Z,17.09
2023-05-22T19:43:04.500Z,16.92
2023-05-22T19:45:30.980Z,16.87
2023-05-22T19:47:57.541Z,16.80
2023-05-22T19:50:23.967Z,16.88
2023-05-22T19:52:50.363Z,16.48
2023-05-22T19:55:16.760Z,16.63
2023-05-22T19:57:44.449Z,16.93
2023-05-22T20:00:11.914Z,16.90
2023-05-22T20:02:39.678Z,16.81
2023-05-22T20:05:12.753Z,16.99
2023-05-22T20:07:39.888Z,17.11
2023-05-22T20:10:07.022Z,17.21
2023-05-22T20:12:33.727Z,17.04
2023-05-22T20:15:00.390Z,17.29
2023-05-22T20:17:26.839Z,17.30
2023-05-22T20:19:53.989Z,17.55
2023-05-22T20:22:30.474Z,17.80
2023-05-22T20:24:56.793Z,17.67
2023-05-22T20:27:23.132Z,17.79
2023-05-22T20:29:52.472Z,17.72
2023-05-22T20:32:18.851Z,17.63
2023-05-22T20:34:46.340Z,17.73
2023-05-22T20:37:13.546Z,17.67
2023-05-22T20:39:43.004Z,17.61
2023-05-22T20:42:09.441Z,17.66
2023-05-22T20:44:35.753Z,17.67
2023-05-22T20:47:03.111Z,17.50
2023-05-22T20:49:30.182Z,17.19
2023-05-22T20:51:59.847Z,17.38
2023-05-22T20:54:26.286Z,17.05
2023-05-22T20:56:54.547Z,17.31
2023-05-22T20:59:21.963Z,17.14
2023-05-22T21:01:48.342Z,17.16
2023-05-22T21:04:14.716Z,17.12
2023-05-22T21:06:41.070Z,17.31
2023-05-22T21:09:07.388Z,17.22
2023-05-22T21:11:33.742Z,17.06
2023-05-22T21:14:00.132Z,16.89
2023-05-22T21:16:26.776Z,17.23
2023-05-22T21:18:53.203Z,17.35
2023-05-22T21:21:22.324Z,17.50
2023-05-22T21:23:52.319Z,17.65
2023-05-22T21:26:18.748Z,17.49
2023-05-22T21:28:45.328Z,17.36
2023-05-22T21:31:11.736Z,17.34
2023-05-22T21:33:38.118Z,17.23
2023-05-22T21:36:04.649Z,17.02
2023-05-22T21:38:30.992Z,16.91
2023-05-22T21:40:57.403Z,16.71
2023-05-22T21:43:23.961Z,16.90
2023-05-22T21:45:50.287Z,16.91
2023-05-22T21:48:16.739Z,16.93
2023-05-22T21:50:43.045Z,16.78
2023-05-22T21:53:09.716Z,16.62
2023-05-22T21:55:36.457Z,16.66
2023-05-22T21:58:03.315Z,16.56
2023-05-22T22:00:29.663Z,16.61
2023-05-22T22:02:57.320Z,16.74
2023-05-22T22:05:25.822Z,16.77
2023-05-22T22:07:52.128Z,16.58
2023-05-22T22:10:18.579Z,16.49
2023-05-22T22:12:44.951Z,16.36
2023-05-22T22:15:12.061Z,16.53
2023-05-22T22:17:40.342Z,16.60
2023-05-22T22:20:10.244Z,16.92
2023-05-22T22:22:36.660Z,16.95
2023-05-22T22:25:03.254Z,16.95
2023-05-22T22:27:29.596Z,16.75
2023-05-22T22:29:55.923Z,17.09
2023-05-22T22:32:22.454Z,16.75
2023-05-22T22:34:53.529Z,17.20
2023-05-22T22:37:23.272Z,16.79
2023-05-22T22:39:49.595Z,16.63
2023-05-22T22:42:15.995Z,17.09
2023-05-22T22:44:43.192Z,16.74
2023-05-22T22:47:09.652Z,16.89
2023-05-22T22:49:37.203Z,16.80
2023-05-22T22:52:04.260Z,16.75
2023-05-22T22:54:30.860Z,16.63
2023-05-22T22:56:57.271Z,16.80
2023-05-22T22:59:23.620Z,16.57
2023-05-22T23:01:50.048Z,16.81
2023-05-22T23:04:16.789Z,16.88
2023-05-22T23:06:43.229Z,17.01
2023-05-22T23:09:10.915Z,16.78
2023-05-22T23:11:37.980Z,16.67
2023-05-22T23:14:07.512Z,16.68
2023-05-22T23:16:40.588Z,16.74
2023-05-22T23:19:08.376Z,16.71
2023-05-22T23:21:35.286Z,16.77
2023-05-22T23:24:06.449Z,16.67
2023-05-22T23:26:33.584Z,16.58
2023-05-22T23:29:00.419Z,16.55
2023-05-22T23:31:30.025Z,16.88
2023-05-22T23:33:57.460Z,16.91
2023-05-22T23:36:24.533Z,16.78
2023-05-22T23:38:51.183Z,16.82
2023-05-22T23:41:18.459Z,16.82
2023-05-22T23:43:45.582Z,16.72
2023-05-22T23:46:13.135Z,16.70
2023-05-22T23:48:40.169Z,16.74
2023-05-22T23:51:08.780Z,16.56
2023-05-22T23:53:36.236Z,16.63
2023-05-22T23:56:03.576Z,16.40
2023-05-22T23:58:30.167Z,16.34
